Time;durP1;ratioP1;P1;durP2;ratioP2;P2;SDS_P1;SDS_P2;PMS_P1;PMS_P2;Temp;Humidity;BMP_temperature;BMP_pressure;BME280_temperature;BME280_humidity;BME280_pressure;Samples;Min_cycle;Max_cycle;Signal;HPM_P1;HPM_P2
2023/01/05 00:00:55;;;;;;;18.47;12.43;;;;;;;11.38;72.09;95461.75;5136406;27;20195;-46
2023/01/05 00:03:22;;;;;;;18.37;12.83;;;;;;;11.40;72.04;95461.63;5136587;27;20224;-46
2023/01/05 00:05:49;;;;;;;22.40;13.50;;;;;;;11.41;71.94;95458.16;5136638;27;20199;-47
2023/01/05 00:08:15;;;;;;;18.13;11.60;;;;;;;11.42;72.09;95460.56;5136921;27;20184;-49
2023/01/05 00:24:25;;;;;;;16.43;12.33;;;;;;;11.48;71.98;95441.31;5136169;27;20198;-45
2023/01/05 00:26:52;;;;;;;14.40;11.60;;;;;;;11.46;71.86;95430.41;5136375;27;20194;-44
2023/01/05 00:29:20;;;;;;;16.50;12.33;;;;;;;11.50;71.73;95430.03;5136528;27;20260;-46
2023/01/05 00:31:47;;;;;;;16.97;12.03;;;;;;;11.52;71.66;95427.34;5136236;27;20541;-46
2023/01/05 00:34:14;;;;;;;16.53;11.57;;;;;;;11.52;71.77;95423.00;5136528;27;20192;-44
2023/01/05 00:36:40;;;;;;;15.53;11.63;;;;;;;11.51;71.69;95416.28;5136110;27;20177;-45
2023/01/05 00:39:07;;;;;;;17.27;12.43;;;;;;;11.55;71.76;95419.41;5136011;27;20215;-46
2023/01/05 00:41:34;;;;;;;18.47;12.30;;;;;;;11.54;71.58;95417.78;5136018;27;20610;-45
2023/01/05 00:44:01;;;;;;;16.30;11.20;;;;;;;11.56;71.59;95414.16;5136592;27;20195;-44
2023/01/05 00:46:29;;;;;;;16.40;12.40;;;;;;;11.55;71.70;95420.22;5136349;27;20199;-46
2023/01/05 00:48:55;;;;;;;13.17;11.00;;;;;;;11.56;71.66;95421.03;5136052;27;20264;-45
2023/01/05 00:51:22;;;;;;;15.83;11.83;;;;;;;11.53;71.51;95409.28;5136130;27;20196;-44
2023/01/05 00:53:49;;;;;;;15.77;10.93;;;;;;;11.53;71.55;95422.09;5135492;27;20726;-50
2023/01/05 00:56:16;;;;;;;13.73;10.57;;;;;;;11.52;71.55;95428.13;5136158;27;20192;-46
2023/01/05 00:58:42;;;;;;;17.17;11.73;;;;;;;11.38;71.71;95396.91;5135924;27;21904;-44
2023/01/05 01:01:10;;;;;;;16.03;11.67;;;;;;;11.51;71.72;95425.72;5136288;27;20660;-46
2023/01/05 01:03:38;;;;;;;14.17;10.60;;;;;;;11.52;71.61;95424.78;5135914;27;20200;-45
2023/01/05 01:06:05;;;;;;;14.60;11.17;;;;;;;11.36;71.56;95394.50;5135321;27;20313;-46
2023/01/05 01:08:32;;;;;;;15.60;11.53;;;;;;;11.50;71.49;95411.28;5132334;27;20261;-45
2023/01/05 01:11:04;;;;;;;17.47;12.43;;;;;;;11.53;71.48;95419.53;5112292;28;20227;-46
2023/01/05 01:13:31;;;;;;;15.27;10.63;;;;;;;11.45;71.53;95411.66;5112196;28;20679;-47
2023/01/05 01:15:58;;;;;;;14.80;11.23;;;;;;;11.55;71.69;95420.22;5112172;28;20200;-46
2023/01/05 01:18:25;;;;;;;15.10;11.13;;;;;;;11.56;71.54;95421.03;5117916;27;20199;-47
2023/01/05 01:20:53;;;;;;;14.90;11.77;;;;;;;11.58;71.40;95416.59;5132523;27;20648;-46
2023/01/05 01:23:20;;;;;;;15.43;10.87;;;;;;;11.59;71.33;95409.72;5132623;27;20196;-49
2023/01/05 01:25:47;;;;;;;16.90;11.73;;;;;;;11.55;71.41;95404.84;5132777;27;20203;-44
2023/01/05 01:28:13;;;;;;;18.23;12.00;;;;;;;11.61;71.62;95400.97;5132599;27;20188;-47
2023/01/05 01:30:40;;;;;;;16.27;11.67;;;;;;;11.58;71.55;95393.53;5132502;27;20223;-50
2023/01/05 01:33:07;;;;;;;16.13;11.83;;;;;;;11.63;71.49;95395.72;5131932;27;20252;-52
2023/01/05 01:35:34;;;;;;;16.07;12.37;;;;;;;11.63;71.40;95395.72;5132096;27;20196;-50
2023/01/05 01:38:02;;;;;;;16.43;12.00;;;;;;;11.65;71.25;95386.16;5132102;27;20196;-47
2023/01/05 01:40:29;;;;;;;17.30;11.90;;;;;;;11.51;71.33;95362.50;5131861;27;20304;-49
2023/01/05 01:42:55;;;;;;;14.77;11.43;;;;;;;11.65;71.34;95379.28;5132303;27;20187;-46
2023/01/05 01:45:24;;;;;;;15.10;11.53;;;;;;;11.48;71.34;95342.25;5131755;27;20180;-46
2023/01/05 01:47:55;;;;;;;16.57;12.03;;;;;;;11.66;71.20;95365.53;5131742;27;20184;-46
2023/01/05 01:50:27;;;;;;;14.60;11.73;;;;;;;11.66;71.48;95364.75;5131867;27;20231;-43
2023/01/05 01:52:58;;;;;;;14.63;11.17;;;;;;;11.65;71.30;95361.34;5132022;27;20192;-52
2023/01/05 01:55:27;;;;;;;17.43;11.87;;;;;;;11.55;71.32;95334.88;5131991;27;20196;-50
2023/01/05 01:57:54;;;;;;;17.53;12.13;;;;;;;11.63;71.43;95349.63;5132053;27;20181;-46
2023/01/05 02:00:21;;;;;;;15.03;11.37;;;;;;;11.65;71.23;95356.22;5131555;27;20188;-54
2023/01/05 02:02:50;;;;;;;14.53;11.40;;;;;;;11.64;71.21;95340.97;5132119;27;20652;-50
2023/01/05 02:05:19;;;;;;;15.53;11.80;;;;;;;11.64;71.24;95334.09;5132753;27;20857;-46
2023/01/05 02:07:48;;;;;;;14.43;11.63;;;;;;;11.60;71.36;95337.84;5133251;27;20544;-46
2023/01/05 02:10:18;;;;;;;15.27;11.87;;;;;;;11.61;71.37;95331.78;5131213;27;20602;-46
2023/01/05 02:13:07;;;;;;;14.83;11.07;;;;;;;11.59;71.47;95331.13;5130941;27;20660;-48
2023/01/05 02:15:44;;;;;;;16.00;12.43;;;;;;;11.56;71.66;95331.38;5131345;27;20578;-47
2023/01/05 02:18:31;;;;;;;19.77;13.00;;;;;;;11.55;71.34;95316.94;5131128;27;20192;-47
2023/01/05 02:21:34;;;;;;;16.73;12.20;;;;;;;11.52;71.57;95315.44;5132109;27;20192;-45
2023/01/05 02:24:41;;;;;;;17.07;11.57;;;;;;;11.47;71.64;95317.56;5131866;27;20245;-47
2023/01/05 02:27:27;;;;;;;15.97;11.57;;;;;;;11.46;71.60;95321.09;5130726;27;20628;-45
2023/01/05 02:30:33;;;;;;;15.57;10.93;;;;;;;11.46;71.72;95321.09;5131053;27;20654;-46
2023/01/05 02:33:09;;;;;;;15.03;11.50;;;;;;;11.46;71.68;95315.97;5131419;27;20192;-46
2023/01/05 02:35:51;;;;;;;16.37;11.57;;;;;;;11.46;71.58;95325.41;5131033;27;20245;-46
2023/01/05 02:38:25;;;;;;;16.03;11.50;;;;;;;11.45;71.78;95329.72;5131449;27;20184;-44
2023/01/05 02:40:59;;;;;;;19.17;12.10;;;;;;;11.43;71.74;95320.53;5130267;27;20707;-48
2023/01/05 02:43:28;;;;;;;16.47;11.83;;;;;;;11.44;71.48;95327.25;5131061;27;20196;-49
2023/01/05 02:45:55;;;;;;;15.07;11.83;;;;;;;11.45;71.73;95319.47;5131545;27;20180;-44
2023/01/05 02:48:24;;;;;;;18.63;12.50;;;;;;;11.48;71.58;95320.94;5130540;27;20279;-46
2023/01/05 02:50:59;;;;;;;18.40;12.53;;;;;;;11.49;71.41;95307.22;5130987;27;20220;-47
2023/01/05 02:53:31;;;;;;;15.80;11.57;;;;;;;11.51;71.58;95307.88;5130464;27;20241;-48
2023/01/05 02:56:03;;;;;;;16.33;11.63;;;;;;;11.51;71.49;95303.56;5130426;27;20199;-48
2023/01/05 02:58:33;;;;;;;14.93;11.60;;;;;;;11.52;71.37;95296.69;5131181;27;20210;-47
2023/01/05 03:01:03;;;;;;;17.33;12.80;;;;;;;11.52;71.39;95289.81;5131291;27;20185;-44
2023/01/05 03:03:37;;;;;;;17.50;12.33;;;;;;;11.50;71.51;95283.22;5130816;27;20192;-47
2023/01/05 03:06:08;;;;;;;18.30;11.87;;;;;;;11.47;71.66;95273.22;5130671;27;20185;-50
2023/01/05 03:08:40;;;;;;;19.63;12.00;;;;;;;11.45;71.41;95273.38;5130267;27;20677;-47
2023/01/05 03:13:57;;;;;;;16.57;12.30;;;;;;;11.50;71.54;95267.84;5130730;27;20191;-47
2023/01/05 03:16:28;;;;;;;17.67;13.33;;;;;;;11.47;71.54;95263.78;5130222;27;20656;-47
2023/01/05 03:35:52;;;;;;;15.40;12.57;;;;;;;11.35;71.84;95231.53;5046609;28;20254;-47
2023/01/05 03:38:26;;;;;;;18.57;13.17;;;;;;;11.38;71.83;95233.03;5046356;28;20198;-45
2023/01/05 03:40:57;;;;;;;20.43;13.57;;;;;;;11.38;71.87;95238.16;5046607;28;20291;-49
2023/01/05 03:43:25;;;;;;;17.10;12.77;;;;;;;11.35;71.51;95231.53;5047078;28;20191;-45
2023/01/05 03:45:54;;;;;;;16.40;12.57;;;;;;;11.38;71.59;95240.72;5046578;28;20191;-47
2023/01/05 03:48:22;;;;;;;16.80;13.27;;;;;;;11.35;71.70;95240.97;5046876;28;20595;-48
2023/01/05 03:50:50;;;;;;;15.57;12.50;;;;;;;11.39;71.73;95250.00;5046346;28;20265;-47
2023/01/05 03:53:17;;;;;;;18.80;13.90;;;;;;;11.37;71.92;95245.03;5046105;28;20690;-47
2023/01/05 03:55:44;;;;;;;17.57;13.33;;;;;;;11.38;71.80;95244.06;5046371;28;20667;-47
2023/01/05 03:58:11;;;;;;;18.63;13.03;;;;;;;11.39;71.66;95252.56;5106842;28;20568;-45
2023/01/05 04:00:38;;;;;;;17.60;13.03;;;;;;;11.37;71.76;95239.09;5130033;28;20188;-48
2023/01/05 04:03:04;;;;;;;18.87;12.30;;;;;;;11.39;71.58;95239.75;5129925;28;20656;-45
2023/01/05 04:05:31;;;;;;;18.53;12.73;;;;;;;11.39;71.83;95240.56;5130072;28;20192;-45
2023/01/05 04:07:59;;;;;;;15.80;12.77;;;;;;;11.38;71.79;95238.97;5130130;28;20180;-47
2023/01/05 04:10:26;;;;;;;18.80;12.03;;;;;;;11.37;71.72;95229.66;5130031;28;20292;-48
2023/01/05 04:12:53;;;;;;;18.17;12.93;;;;;;;11.28;71.80;95213.31;5130105;28;20193;-50
2023/01/05 04:15:20;;;;;;;17.17;12.27;;;;;;;11.36;71.51;95224.69;5130172;28;20265;-51
2023/01/05 04:17:46;;;;;;;18.30;12.23;;;;;;;11.35;71.82;95225.59;5129426;28;20278;-44
2023/01/05 04:20:13;;;;;;;16.03;12.33;;;;;;;11.33;71.70;95223.16;5130010;28;20180;-47
2023/01/05 04:22:40;;;;;;;17.03;12.63;;;;;;;11.32;71.82;95213.88;5129768;28;20620;-47
2023/01/05 04:25:09;;;;;;;18.17;11.87;;;;;;;11.29;71.67;95219.25;5130160;28;20195;-49
2023/01/05 04:27:36;;;;;;;17.83;12.20;;;;;;;11.27;71.93;95206.59;5130400;28;20188;-46
2023/01/05 04:30:03;;;;;;;16.30;12.27;;;;;;;11.24;72.04;95203.47;5132009;28;20200;-46
2023/01/05 04:32:30;;;;;;;15.67;10.97;;;;;;;11.22;72.03;95220.69;5129545;28;20660;-47
2023/01/05 04:34:56;;;;;;;15.77;11.97;;;;;;;11.20;71.96;95204.66;5129665;28;20589;-48
2023/01/05 04:37:23;;;;;;;16.20;11.70;;;;;;;11.18;71.97;95211.66;5129496;28;20189;-47
2023/01/05 04:39:50;;;;;;;18.47;11.93;;;;;;;11.13;72.24;95212.03;5129967;28;20235;-50
2023/01/05 04:42:18;;;;;;;19.20;12.13;;;;;;;11.14;72.14;95213.69;5130886;27;20196;-48
2023/01/05 04:44:45;;;;;;;14.23;11.07;;;;;;;11.13;72.15;95218.91;5133563;27;20200;-50
2023/01/05 04:47:12;;;;;;;16.00;12.40;;;;;;;11.09;72.21;95210.66;5133324;27;20667;-47
2023/01/05 04:49:38;;;;;;;16.23;11.37;;;;;;;11.05;72.32;95217.81;5133661;27;20176;-50
2023/01/05 04:52:06;;;;;;;18.43;13.10;;;;;;;11.07;72.15;95222.00;5133217;27;20620;-49
2023/01/05 04:54:33;;;;;;;15.53;11.63;;;;;;;11.04;72.16;95228.97;5133045;27;20664;-48
2023/01/05 04:57:00;;;;;;;19.20;12.00;;;;;;;11.00;72.08;95222.47;5132482;27;20195;-47
2023/01/05 04:59:28;;;;;;;15.67;12.20;;;;;;;11.01;72.12;95234.38;5132764;27;20613;-50
2023/01/05 05:01:55;;;;;;;15.90;12.63;;;;;;;10.97;72.42;95230.44;5133277;27;20526;-55
2023/01/05 05:04:21;;;;;;;17.50;13.03;;;;;;;10.96;72.25;95235.66;5132936;27;20625;-47
2023/01/05 05:06:48;;;;;;;16.83;12.93;;;;;;;10.94;72.37;95238.34;5132933;27;20203;-51
2023/01/05 05:09:15;;;;;;;19.63;13.37;;;;;;;10.92;72.33;95241.97;5132281;27;20715;-47
2023/01/05 05:11:42;;;;;;;16.73;12.80;;;;;;;10.89;72.37;95243.03;5132057;27;20212;-47
2023/01/05 05:14:08;;;;;;;18.33;12.70;;;;;;;10.88;72.46;95243.16;5132404;27;20184;-47
2023/01/05 05:16:37;;;;;;;19.10;13.60;;;;;;;10.85;72.46;95241.66;5132503;27;20185;-45
2023/01/05 05:19:03;;;;;;;17.70;12.23;;;;;;;10.84;72.37;95244.34;5132030;27;20267;-48
2023/01/05 05:21:30;;;;;;;17.63;12.97;;;;;;;10.54;72.26;95197.31;5132448;27;20188;-46
2023/01/05 05:23:57;;;;;;;20.00;13.20;;;;;;;10.77;72.62;95244.03;5132665;27;20192;-46
2023/01/05 05:26:24;;;;;;;16.63;12.67;;;;;;;10.75;72.55;95253.56;5132258;27;20203;-46
2023/01/05 05:28:50;;;;;;;19.70;13.13;;;;;;;10.72;72.67;95252.09;5132991;27;20195;-47
2023/01/05 05:31:17;;;;;;;20.37;13.10;;;;;;;10.67;72.56;95235.50;5131890;27;20294;-46
2023/01/05 05:33:45;;;;;;;22.60;14.07;;;;;;;10.68;72.72;95240.47;5132848;27;20180;-46
2023/01/05 05:36:13;;;;;;;16.57;9.60;;;;;;;11.28;100.00;95218.44;5132269;27;20193;-44
2023/01/05 05:38:39;;;;;;;16.00;10.20;;;;;;;12.18;100.00;95216.78;5132590;27;20279;-45
2023/01/05 05:41:06;;;;;;;15.50;9.73;;;;;;;12.99;100.00;95212.06;5131319;27;20592;-45
2023/01/05 05:43:35;;;;;;;25.63;9.80;;;;;;;13.75;100.00;95214.50;5132329;27;20187;-47
2023/01/05 05:46:02;;;;;;;14.40;8.70;;;;;;;14.34;100.00;95204.63;5132271;27;20199;-45
2023/01/05 05:48:28;;;;;;;12.83;10.40;;;;;;;14.79;99.75;95202.75;5132327;27;20279;-45
2023/01/05 05:50:57;;;;;;;10.30;8.17;;;;;;;14.84;97.29;95173.16;5131709;27;20657;-50
2023/01/05 05:53:23;;;;;;;12.83;9.97;;;;;;;14.84;93.71;95191.19;5131884;27;20248;-45
2023/01/05 05:55:51;;;;;;;11.47;9.17;;;;;;;14.65;87.69;95199.91;5132463;27;20283;-46
2023/01/05 05:58:18;;;;;;;16.13;10.83;;;;;;;14.41;83.18;95193.56;5131905;27;20184;-46
2023/01/05 06:00:45;;;;;;;18.83;11.73;;;;;;;14.19;81.17;95199.19;5132235;27;20181;-48
2023/01/05 06:03:12;;;;;;;17.97;11.87;;;;;;;13.96;80.18;95193.66;5131840;27;20203;-45
2023/01/05 06:05:39;;;;;;;14.97;11.07;;;;;;;13.74;79.51;95193.13;5131746;27;20245;-45
2023/01/05 06:08:07;;;;;;;17.73;11.17;;;;;;;13.51;79.17;95187.59;5131967;27;20628;-46
2023/01/05 06:10:34;;;;;;;17.27;11.47;;;;;;;13.32;78.82;95185.09;5131719;27;20680;-46
2023/01/05 06:13:01;;;;;;;21.97;11.50;;;;;;;13.15;78.67;95178.91;5131906;27;20191;-46
2023/01/05 06:15:28;;;;;;;15.13;11.57;;;;;;;12.99;78.49;95182.06;5132087;27;20184;-46
2023/01/05 06:17:54;;;;;;;16.07;12.53;;;;;;;12.83;78.86;95179.31;5131059;27;20580;-44
2023/01/05 06:20:21;;;;;;;16.30;12.23;;;;;;;12.70;78.55;95179.59;5123115;27;20200;-45
2023/01/05 06:22:48;;;;;;;23.20;13.87;;;;;;;12.41;78.62;95148.06;5132623;27;20291;-45
2023/01/05 06:25:16;;;;;;;19.67;13.27;;;;;;;12.43;78.53;95172.59;5133267;27;20682;-44
2023/01/05 06:27:43;;;;;;;20.73;13.73;;;;;;;12.43;78.60;95179.50;5134463;27;20289;-44
2023/01/05 06:30:10;;;;;;;21.73;14.47;;;;;;;12.39;78.50;95183.28;5131153;27;20199;-45
2023/01/05 06:32:37;;;;;;;19.07;13.40;;;;;;;12.36;78.30;95175.88;5131230;27;20208;-45
2023/01/05 06:35:05;;;;;;;17.03;13.47;;;;;;;12.44;78.27;95181.13;5130694;27;20192;-46
2023/01/05 06:37:31;;;;;;;24.73;14.77;;;;;;;12.52;78.03;95170.97;5131283;27;20188;-45
2023/01/05 06:39:58;;;;;;;22.37;15.30;;;;;;;12.66;77.52;95172.31;5130771;27;20244;-46
2023/01/05 06:42:27;;;;;;;21.03;15.30;;;;;;;12.81;77.16;95174.28;5131389;27;20215;-45
2023/01/05 06:44:54;;;;;;;20.50;13.97;;;;;;;12.93;76.88;95161.31;5131172;27;20200;-47
2023/01/05 06:47:21;;;;;;;23.60;14.73;;;;;;;13.13;76.51;95173.13;5130473;27;20189;-46
2023/01/05 06:49:47;;;;;;;21.87;14.90;;;;;;;13.33;76.43;95173.06;5122346;27;20695;-50
2023/01/05 06:52:14;;;;;;;20.37;14.70;;;;;;;13.49;76.28;95165.53;5129311;27;20217;-45
2023/01/05 06:54:42;;;;;;;20.57;15.70;;;;;;;13.75;76.22;95171.59;5129792;27;20200;-46
2023/01/05 06:57:09;;;;;;;19.63;15.53;;;;;;;13.92;76.08;95177.72;5130018;27;20250;-45
2023/01/05 06:59:37;;;;;;;23.23;15.13;;;;;;;14.09;75.74;95178.69;5130182;27;20263;-45
2023/01/05 07:02:04;;;;;;;23.50;15.90;;;;;;;14.30;75.44;95179.19;5130469;27;20180;-46
2023/01/05 07:04:31;;;;;;;22.57;16.07;;;;;;;14.48;75.23;95175.78;5129074;27;20568;-45
2023/01/05 07:06:57;;;;;;;21.20;15.27;;;;;;;14.55;75.37;95171.69;5130308;27;20196;-45
2023/01/05 07:09:24;;;;;;;21.77;15.97;;;;;;;14.55;75.17;95167.34;5130013;27;20252;-46
2023/01/05 07:11:51;;;;;;;22.90;16.47;;;;;;;14.60;75.04;95171.25;5129776;27;20220;-45
2023/01/05 07:14:18;;;;;;;24.57;16.53;;;;;;;14.67;74.40;95170.47;5129910;27;20287;-54
2023/01/05 07:16:46;;;;;;;23.90;16.40;;;;;;;14.72;74.11;95178.56;5129615;27;20199;-56
2023/01/05 07:19:13;;;;;;;23.77;17.73;;;;;;;14.72;74.00;95167.44;5129763;27;20614;-46
2023/01/05 07:21:40;;;;;;;22.83;16.97;;;;;;;14.69;73.84;95168.56;5129431;27;20188;-44
2023/01/05 07:24:07;;;;;;;22.30;16.77;;;;;;;14.70;73.57;95166.81;5129416;27;20181;-52
2023/01/05 07:26:34;;;;;;;26.10;16.73;;;;;;;14.26;73.39;95098.13;5129269;27;20191;-48
2023/01/05 07:29:00;;;;;;;23.17;16.70;;;;;;;14.67;73.15;95162.75;5129345;27;20231;-45
2023/01/05 07:31:27;;;;;;;21.40;16.83;;;;;;;14.68;72.87;95161.81;5129336;27;20204;-45
2023/01/05 07:33:55;;;;;;;25.23;16.80;;;;;;;14.77;72.45;95152.38;5129343;27;20188;-46
2023/01/05 07:36:22;;;;;;;22.63;16.43;;;;;;;14.80;72.61;95136.59;5129214;27;20192;-44
2023/01/05 07:38:49;;;;;;;22.53;16.20;;;;;;;14.90;72.48;95145.03;5128491;27;20280;-46
2023/01/05 07:41:16;;;;;;;24.10;16.03;;;;;;;15.04;72.18;95139.31;5106026;28;20221;-45
2023/01/05 07:43:43;;;;;;;25.57;16.30;;;;;;;15.34;71.43;95144.09;5108912;27;20200;-45
2023/01/05 07:46:10;;;;;;;20.57;16.07;;;;;;;15.59;71.09;95137.22;5110707;27;20254;-52
2023/01/05 07:48:37;;;;;;;22.17;16.03;;;;;;;15.80;70.78;95140.22;5109735;27;20188;-45
2023/01/05 07:51:06;;;;;;;25.23;16.43;;;;;;;15.99;70.48;95139.13;5109626;28;20203;-53
2023/01/05 07:53:36;;;;;;;23.43;16.50;;;;;;;16.09;69.79;95132.03;5109195;28;20222;-46
2023/01/05 07:56:03;;;;;;;22.93;16.77;;;;;;;16.20;69.02;95141.25;5115108;28;20184;-51
2023/01/05 07:58:30;;;;;;;23.60;16.30;;;;;;;16.29;68.92;95135.09;5113765;28;20215;-51
2023/01/05 08:00:57;;;;;;;20.70;15.97;;;;;;;16.45;68.64;95136.84;5108091;28;20254;-44
2023/01/05 08:03:24;;;;;;;20.97;15.97;;;;;;;16.56;67.94;95126.19;5109033;28;20197;-46
2023/01/05 08:05:51;;;;;;;22.90;16.17;;;;;;;16.63;67.60;95134.91;5112758;28;20188;-44
2023/01/05 08:08:19;;;;;;;20.07;14.77;;;;;;;16.78;67.14;95124.75;5111280;28;20193;-45
2023/01/05 08:10:45;;;;;;;20.40;15.60;;;;;;;16.93;66.53;95132.63;5111625;28;20189;-45
2023/01/05 08:15:59;;;;;;;19.30;14.20;;;;;;;17.04;65.51;95120.13;5118673;27;20291;-45
2023/01/05 08:18:26;;;;;;;19.70;15.27;;;;;;;16.96;65.57;95119.38;5110004;27;20208;-45
2023/01/05 08:20:54;;;;;;;21.97;14.63;;;;;;;16.89;65.63;95127.00;5116991;27;20188;-45
2023/01/05 08:23:23;;;;;;;19.77;15.03;;;;;;;16.81;65.56;95129.59;5108385;27;20652;-44
2023/01/05 08:25:49;;;;;;;21.00;14.93;;;;;;;16.70;65.92;95132.47;5114910;27;20557;-44
2023/01/05 08:28:17;;;;;;;19.37;14.23;;;;;;;16.68;65.77;95130.06;5119004;27;20597;-44
2023/01/05 08:30:44;;;;;;;18.00;14.27;;;;;;;17.04;64.71;95127.91;5114645;27;20196;-44
2023/01/05 08:33:11;;;;;;;21.30;15.97;;;;;;;17.43;63.18;95127.09;5114406;27;20575;-45
2023/01/05 08:35:40;;;;;;;19.53;13.80;;;;;;;17.69;62.29;95136.34;5115249;27;20185;-45
2023/01/05 08:38:07;;;;;;;20.03;14.83;;;;;;;17.73;62.02;95122.09;5113815;27;20200;-46
2023/01/05 08:40:36;;;;;;;20.53;14.73;;;;;;;17.75;61.72;95120.97;5102482;27;20644;-45
2023/01/05 08:43:03;;;;;;;20.20;15.00;;;;;;;17.70;61.69;95117.25;5096926;28;20204;-46
2023/01/05 08:45:30;;;;;;;18.20;14.70;;;;;;;17.65;61.97;95117.75;5101736;28;20284;-45
2023/01/05 08:47:57;;;;;;;18.13;14.53;;;;;;;17.56;61.99;95119.59;5096541;28;20197;-46
2023/01/05 08:50:24;;;;;;;18.13;14.07;;;;;;;17.46;62.01;95118.19;5100461;28;20208;-45
2023/01/05 08:52:50;;;;;;;19.47;15.20;;;;;;;17.37;62.19;95114.06;5105566;28;20220;-44
2023/01/05 08:55:17;;;;;;;17.67;14.13;;;;;;;17.30;62.25;95112.13;5105800;28;20204;-46
2023/01/05 08:57:46;;;;;;;17.60;14.27;;;;;;;17.25;62.41;95101.50;5102260;28;20200;-46
2023/01/05 09:00:16;;;;;;;18.43;14.17;;;;;;;17.21;62.35;95102.00;5106702;28;20200;-46
2023/01/05 09:02:42;;;;;;;17.27;13.70;;;;;;;17.15;62.44;95092.34;5103038;28;20185;-45
2023/01/05 09:05:10;;;;;;;17.43;14.00;;;;;;;17.08;62.47;95086.22;5106426;28;20207;-44
2023/01/05 09:07:36;;;;;;;21.40;15.27;;;;;;;17.07;62.43;95082.84;5102924;28;20197;-45
2023/01/05 09:10:04;;;;;;;15.80;13.90;;;;;;;17.05;62.42;95082.19;5100710;28;20186;-46
2023/01/05 09:12:31;;;;;;;17.87;13.80;;;;;;;17.02;62.41;95070.41;5102523;28;20224;-47
2023/01/05 09:14:59;;;;;;;21.30;13.60;;;;;;;17.00;62.38;95061.22;5093848;28;20201;-49
2023/01/05 09:17:26;;;;;;;17.37;14.20;;;;;;;16.98;62.30;95058.81;5098059;28;20182;-47
2023/01/05 09:19:52;;;;;;;18.57;13.77;;;;;;;16.96;62.31;95052.19;5098207;28;20197;-46
2023/01/05 09:22:20;;;;;;;17.30;13.47;;;;;;;16.93;62.24;95037.84;5095485;28;20243;-45
2023/01/05 09:24:47;;;;;;;19.10;13.77;;;;;;;16.88;62.30;95024.63;5100887;28;20247;-47
2023/01/05 09:27:14;;;;;;;16.30;13.77;;;;;;;16.88;62.20;95016.88;5099767;28;20193;-45
2023/01/05 09:29:40;;;;;;;18.23;13.90;;;;;;;16.73;62.10;94992.72;5093934;28;20638;-44
2023/01/05 09:32:10;;;;;;;17.80;14.20;;;;;;;16.82;62.05;95014.94;5105262;28;20228;-44
2023/01/05 09:34:37;;;;;;;16.70;13.60;;;;;;;16.76;62.08;95003.53;5098477;28;20204;-45
2023/01/05 09:37:04;;;;;;;19.60;14.57;;;;;;;16.71;62.12;95004.94;5105039;28;20198;-45
2023/01/05 09:39:30;;;;;;;19.90;14.07;;;;;;;16.72;61.93;95006.56;5109363;28;20250;-45
2023/01/05 09:42:02;;;;;;;18.07;13.53;;;;;;;16.58;61.84;94977.09;5098678;28;20208;-44
2023/01/05 09:44:31;;;;;;;19.20;13.10;;;;;;;16.75;61.50;94996.75;5097829;28;20295;-48
2023/01/05 09:47:02;;;;;;;18.87;12.70;;;;;;;16.76;61.73;94984.63;5103729;28;20201;-45
2023/01/05 09:49:33;;;;;;;17.70;13.43;;;;;;;16.77;61.52;94981.06;5098440;28;20607;-46
2023/01/05 09:52:05;;;;;;;17.17;13.20;;;;;;;16.78;61.46;94970.56;5093241;28;20207;-45
2023/01/05 09:54:33;;;;;;;19.23;14.13;;;;;;;16.80;61.52;94976.38;5099531;28;20197;-45
2023/01/05 09:57:01;;;;;;;17.20;13.47;;;;;;;16.79;61.47;94964.41;5101406;28;20278;-47
2023/01/05 09:59:31;;;;;;;17.83;12.97;;;;;;;16.80;61.46;94962.66;5101900;28;20193;-45
2023/01/05 10:02:00;;;;;;;18.23;14.07;;;;;;;16.81;61.30;94964.28;5093507;28;20184;-44
2023/01/05 10:04:31;;;;;;;19.60;13.33;;;;;;;16.67;61.16;94929.59;5094937;28;20189;-45
2023/01/05 10:07:02;;;;;;;15.77;12.83;;;;;;;16.82;61.62;94955.53;5099901;28;20298;-46
2023/01/05 10:09:32;;;;;;;19.27;13.93;;;;;;;16.82;61.33;94954.75;5092278;28;20189;-44
2023/01/05 10:14:56;;;;;;;15.03;12.47;;;;;;;16.84;61.06;94953.59;5102939;28;20246;-46
2023/01/05 10:17:24;;;;;;;14.97;12.37;;;;;;;16.80;61.24;94937.63;5095384;28;21112;-44
2023/01/05 10:19:52;;;;;;;17.37;13.53;;;;;;;16.81;61.23;94943.59;5099536;28;20201;-45
2023/01/05 10:22:31;;;;;;;16.60;12.63;;;;;;;16.81;61.08;94946.19;5098890;28;20189;-46
2023/01/05 10:25:04;;;;;;;15.43;12.77;;;;;;;16.80;61.07;94944.59;5094221;28;20561;-45
2023/01/05 10:27:38;;;;;;;18.63;13.13;;;;;;;16.78;60.80;94939.56;5093027;28;20217;-45
2023/01/05 10:30:16;;;;;;;16.47;12.70;;;;;;;16.76;60.91;94931.19;5096954;28;20201;-44
2023/01/05 10:32:55;;;;;;;18.80;12.37;;;;;;;16.77;60.90;94925.06;5090761;28;20313;-45
2023/01/05 10:35:41;;;;;;;16.67;13.37;;;;;;;16.77;60.91;94922.47;5098728;28;20184;-47
2023/01/05 10:38:20;;;;;;;18.67;12.80;;;;;;;16.76;60.84;94920.88;5101092;28;20196;-46
2023/01/05 10:41:00;;;;;;;16.27;12.80;;;;;;;16.78;60.74;94918.91;5108373;27;20239;-46
2023/01/05 10:44:04;;;;;;;15.17;12.47;;;;;;;16.85;60.52;94916.47;5109351;27;20231;-47
2023/01/05 10:46:31;;;;;;;16.00;12.17;;;;;;;16.90;60.39;94906.41;5108659;27;20188;-46
2023/01/05 10:49:00;;;;;;;15.47;12.63;;;;;;;16.91;60.33;94892.50;5099372;27;20262;-45
2023/01/05 10:51:33;;;;;;;17.97;13.13;;;;;;;16.93;60.06;94887.19;5103750;27;20544;-51
2023/01/05 10:54:02;;;;;;;17.23;11.57;;;;;;;16.96;59.86;94881.66;5107497;27;20738;-44
2023/01/05 10:56:31;;;;;;;17.10;13.10;;;;;;;16.97;59.97;94883.28;5109604;27;20185;-45
2023/01/05 10:59:09;;;;;;;16.33;12.73;;;;;;;17.01;59.69;94881.94;5112687;27;20189;-55
2023/01/05 11:01:37;;;;;;;16.97;12.57;;;;;;;17.04;59.75;94874.66;5108664;27;20197;-45
2023/01/05 11:04:08;;;;;;;16.50;12.27;;;;;;;17.12;59.80;94875.59;5108371;28;20709;-45
2023/01/05 11:06:37;;;;;;;15.13;11.73;;;;;;;17.12;59.34;94860.88;5106969;28;20208;-46
2023/01/05 11:09:17;;;;;;;16.87;13.03;;;;;;;17.25;59.28;94868.84;5112322;27;20287;-44
2023/01/05 11:11:52;;;;;;;17.03;12.50;;;;;;;17.29;59.09;94864.94;5110415;27;20213;-50
2023/01/05 11:14:20;;;;;;;17.83;11.60;;;;;;;17.33;59.08;94859.44;5109255;27;20220;-51
2023/01/05 11:16:51;;;;;;;14.80;11.60;;;;;;;17.21;58.84;94833.19;5112846;27;20602;-46
2023/01/05 11:19:21;;;;;;;14.80;11.73;;;;;;;17.40;58.85;94848.22;5110675;27;20203;-44
2023/01/05 11:21:49;;;;;;;13.17;11.73;;;;;;;17.47;58.79;94846.53;5110184;27;20197;-48
2023/01/05 11:24:31;;;;;;;12.37;10.40;;;;;;;17.58;58.51;94858.22;5108138;27;20200;-44
2023/01/05 11:27:00;;;;;;;17.47;11.77;;;;;;;17.64;58.50;94852.34;5108681;28;20197;-45
2023/01/05 11:29:28;;;;;;;14.10;11.17;;;;;;;17.58;58.36;94836.75;5110914;27;20197;-44
2023/01/05 11:31:59;;;;;;;16.00;11.70;;;;;;;17.69;58.23;94844.84;5109064;27;20201;-44
2023/01/05 11:34:30;;;;;;;12.17;10.87;;;;;;;17.81;58.08;94840.06;5103206;28;20209;-45
2023/01/05 11:37:01;;;;;;;15.53;11.47;;;;;;;17.84;58.07;94838.91;5114612;27;20605;-45
2023/01/05 11:39:31;;;;;;;13.37;10.63;;;;;;;17.67;58.02;94810.59;5096675;28;20306;-45
2023/01/05 11:42:10;;;;;;;14.03;10.60;;;;;;;17.92;57.94;94843.97;5080536;28;20196;-46
2023/01/05 11:44:37;;;;;;;15.10;10.93;;;;;;;17.97;57.83;94839.91;5087977;28;20197;-46
2023/01/05 11:47:06;;;;;;;13.37;10.90;;;;;;;18.00;57.93;94838.72;5088332;28;20201;-48
2023/01/05 11:49:34;;;;;;;13.73;11.47;;;;;;;18.05;57.93;94834.63;5087747;28;20621;-45
2023/01/05 11:52:03;;;;;;;12.50;10.80;;;;;;;18.16;57.63;94830.75;5087165;28;20204;-46
2023/01/05 11:54:34;;;;;;;17.93;11.57;;;;;;;18.25;57.55;94829.66;5088128;28;20228;-48
2023/01/05 11:57:14;;;;;;;13.00;10.70;;;;;;;18.33;57.36;94828.78;5086713;28;20194;-47
2023/01/05 11:59:40;;;;;;;17.63;10.93;;;;;;;18.40;57.59;94826.28;5091059;28;20208;-46
2023/01/05 12:02:33;;;;;;;12.50;10.13;;;;;;;18.46;57.39;94825.53;5085060;28;20569;-45
2023/01/05 12:05:11;;;;;;;11.00;9.90;;;;;;;18.49;57.20;94817.41;5087605;28;20593;-46